Time;durP1;ratioP1;P1;durP2;ratioP2;P2;SDS_P1;SDS_P2;PMS_P1;PMS_P2;Temp;Humidity;BMP_temperature;BMP_pressure;BME280_temperature;BME280_humidity;BME280_pressure;Samples;Min_cycle;Max_cycle;Signal;HPM_P1;HPM_P2
2021/09/15 00:01:44;;;;;;;12.23;11.23;;;19.80;99.90;;;20.75;90.74;97752.53;5161193;28;21468;-62
2021/09/15 00:04:18;;;;;;;12.13;11.05;;;19.80;99.90;;;20.71;91.15;97748.97;5167643;28;20199;-62
2021/09/15 00:06:53;;;;;;;11.63;10.73;;;19.80;99.90;;;20.74;90.74;97750.75;5168210;28;20191;-62
2021/09/15 00:09:26;;;;;;;11.43;10.52;;;19.70;99.90;;;20.76;90.71;97744.75;5168848;28;20201;-62
2021/09/15 00:11:59;;;;;;;10.77;9.95;;;19.70;99.90;;;20.77;91.16;97748.19;5168437;28;20422;-62
2021/09/15 00:14:32;;;;;;;11.38;10.48;;;19.80;99.90;;;20.77;90.54;97745.59;5168834;28;20196;-61
2021/09/15 00:17:06;;;;;;;11.73;10.82;;;19.80;99.90;;;20.79;90.41;97747.38;5168555;28;20225;-62
2021/09/15 00:19:39;;;;;;;11.93;10.95;;;19.80;99.90;;;20.72;90.68;97745.56;5169181;28;20278;-61
2021/09/15 00:22:13;;;;;;;12.43;11.50;;;19.80;99.90;;;20.67;90.51;97750.66;5168054;28;20231;-61
2021/09/15 00:24:46;;;;;;;12.30;11.38;;;19.70;99.90;;;20.58;91.16;97745.34;5168782;28;20209;-62
2021/09/15 00:27:19;;;;;;;11.50;10.70;;;19.60;99.90;;;20.57;91.52;97740.97;5166639;28;20222;-62
2021/09/15 00:29:53;;;;;;;12.13;11.02;;;19.60;99.90;;;20.51;91.31;97743.44;5188705;28;20206;-62
2021/09/15 00:32:26;;;;;;;11.02;10.23;;;19.60;99.90;;;20.51;90.67;97742.56;5166159;28;20675;-61
2021/09/15 00:34:59;;;;;;;11.77;10.80;;;19.50;99.90;;;20.50;91.50;97743.44;5167705;28;20263;-62
2021/09/15 00:37:34;;;;;;;11.50;10.60;;;19.50;99.90;;;20.51;92.07;97738.25;5166844;28;20706;-62
2021/09/15 00:40:09;;;;;;;11.75;10.85;;;19.60;99.90;;;20.56;91.46;97730.59;5167999;28;20187;-61
2021/09/15 00:42:42;;;;;;;11.52;10.63;;;19.60;99.90;;;20.57;91.75;97730.59;5167771;28;20707;-61
2021/09/15 00:45:15;;;;;;;12.63;11.63;;;19.60;99.90;;;20.56;91.61;97727.97;5167958;28;20214;-61
2021/09/15 00:47:48;;;;;;;11.13;10.23;;;19.60;99.90;;;20.56;91.80;97736.63;5167832;28;20191;-62
2021/09/15 00:50:21;;;;;;;11.48;10.57;;;19.60;99.90;;;20.58;91.53;97732.34;5167079;28;20195;-62
2021/09/15 00:52:56;;;;;;;11.68;10.70;;;19.60;99.90;;;20.59;91.39;97736.69;5167018;28;20214;-62
2021/09/15 00:55:30;;;;;;;12.57;11.48;;;19.60;99.90;;;20.57;91.35;97728.00;5167692;28;20195;-62
2021/09/15 00:58:03;;;;;;;11.15;10.15;;;19.60;99.90;;;20.57;91.43;97721.94;5168213;28;20222;-62
2021/09/15 01:00:36;;;;;;;11.48;10.55;;;19.60;99.90;;;20.57;91.12;97721.94;5167743;28;20588;-62
2021/09/15 01:03:10;;;;;;;11.05;10.18;;;19.60;99.90;;;20.59;91.04;97722.84;5167286;28;20309;-62
2021/09/15 01:05:43;;;;;;;11.52;10.63;;;19.60;99.90;;;20.60;91.41;97717.69;5164020;28;20195;-61
2021/09/15 01:08:18;;;;;;;12.02;11.00;;;19.60;99.90;;;20.56;90.87;97721.06;5168236;28;20194;-62
2021/09/15 01:10:52;;;;;;;11.95;10.98;;;19.60;99.90;;;20.50;91.22;97717.47;5166453;28;20191;-62
2021/09/15 01:13:27;;;;;;;11.48;10.57;;;19.50;99.90;;;20.52;91.26;97718.34;5168071;28;20215;-62
2021/09/15 01:16:00;;;;;;;11.55;10.65;;;19.50;99.90;;;20.49;91.47;97714.00;5166693;28;20564;-61
2021/09/15 01:18:33;;;;;;;11.40;10.50;;;19.50;99.90;;;20.50;91.14;97715.75;5167541;28;20571;-61
2021/09/15 01:21:10;;;;;;;11.10;10.20;;;19.50;99.90;;;20.48;91.20;97704.44;5167694;28;20191;-62
2021/09/15 01:23:43;;;;;;;11.45;10.55;;;19.50;99.90;;;20.49;91.22;97708.81;5167579;28;20207;-62
2021/09/15 01:26:16;;;;;;;11.35;10.45;;;19.50;99.90;;;20.48;91.34;97709.63;5166918;28;20203;-61
2021/09/15 01:28:50;;;;;;;11.50;10.68;;;19.50;99.90;;;20.50;91.37;97718.34;5167987;28;20199;-62
2021/09/15 01:31:23;;;;;;;11.60;10.65;;;19.50;99.90;;;20.56;90.64;97721.06;5167604;28;20204;-62
2021/09/15 01:33:56;;;;;;;11.15;10.27;;;19.50;99.90;;;20.57;90.10;97712.41;5168257;28;20214;-62
2021/09/15 01:36:30;;;;;;;10.52;9.70;;;19.50;99.90;;;20.65;89.54;97728.97;5168053;28;20278;-61
2021/09/15 01:39:03;;;;;;;11.20;10.40;;;19.50;99.90;;;20.53;90.79;97741.78;5167313;28;20201;-62
2021/09/15 01:41:36;;;;;;;11.43;10.52;;;19.50;99.90;;;20.39;91.24;97730.28;5160398;28;20230;-64
2021/09/15 01:44:09;;;;;;;11.95;11.05;;;19.40;99.90;;;20.34;90.90;97729.31;5167171;28;20214;-62
2021/09/15 01:46:42;;;;;;;12.68;11.68;;;19.30;99.90;;;20.25;92.18;97720.53;5165487;28;20203;-62
2021/09/15 01:49:15;;;;;;;11.30;10.48;;;19.30;99.90;;;20.24;92.31;97716.19;5166808;28;20294;-62
2021/09/15 01:51:50;;;;;;;11.95;10.95;;;19.30;99.90;;;20.21;92.36;97713.56;5167393;28;20223;-61
2021/09/15 01:54:23;;;;;;;12.20;11.30;;;19.30;99.90;;;20.22;92.31;97710.09;5163977;28;20201;-62
2021/09/15 01:56:57;;;;;;;12.48;11.40;;;19.30;99.90;;;20.16;92.05;97710.00;5167175;28;20592;-62
2021/09/15 01:59:30;;;;;;;11.93;10.98;;;19.20;99.90;;;20.15;93.07;97708.25;5167279;28;20195;-62
2021/09/15 02:02:03;;;;;;;11.98;11.07;;;19.20;99.90;;;20.16;93.07;97709.13;5166181;28;20705;-62
2021/09/15 02:04:36;;;;;;;12.00;11.15;;;19.20;99.90;;;20.16;93.12;97702.22;5166937;28;20238;-62
2021/09/15 02:07:11;;;;;;;12.82;11.63;;;19.20;99.90;;;20.15;93.32;97697.00;5166784;28;20262;-62
2021/09/15 02:09:44;;;;;;;12.02;11.13;;;19.20;99.90;;;20.15;92.89;97695.28;5167367;28;20205;-62
2021/09/15 02:12:17;;;;;;;12.35;11.35;;;19.20;99.90;;;20.14;92.73;97688.34;5166660;28;20223;-62
2021/09/15 02:14:51;;;;;;;11.55;10.60;;;19.20;99.90;;;20.09;92.82;97695.19;5165976;28;20207;-62
2021/09/15 02:17:24;;;;;;;11.82;10.93;;;19.10;99.90;;;20.10;92.71;97681.34;5166793;28;20227;-62
2021/09/15 02:19:57;;;;;;;11.85;10.85;;;19.20;99.90;;;20.10;92.54;97689.13;5166207;28;20202;-62
2021/09/15 02:22:31;;;;;;;12.07;11.00;;;19.10;99.90;;;20.09;92.47;97681.31;5166106;28;20231;-63
2021/09/15 02:25:06;;;;;;;12.30;11.30;;;19.10;99.90;;;20.09;92.70;97687.41;5162988;28;20253;-63
2021/09/15 02:27:39;;;;;;;11.73;10.77;;;19.10;99.90;;;20.10;93.05;97683.09;5164539;28;20195;-63
2021/09/15 02:30:13;;;;;;;12.68;11.70;;;19.20;99.90;;;20.11;92.94;97680.50;5164805;28;20235;-63
2021/09/15 02:32:46;;;;;;;12.57;11.60;;;19.20;99.90;;;20.13;92.71;97676.22;5164516;28;20233;-63
2021/09/15 02:35:19;;;;;;;11.50;10.57;;;19.20;99.90;;;20.11;92.90;97687.41;5163801;28;20686;-62
2021/09/15 02:37:53;;;;;;;11.70;10.70;;;19.20;99.90;;;20.09;93.11;97681.31;5164412;28;20219;-63
2021/09/15 02:40:26;;;;;;;12.05;11.13;;;19.20;99.90;;;20.06;93.42;97671.78;5164337;28;20207;-63
2021/09/15 02:43:00;;;;;;;11.70;10.73;;;19.20;99.90;;;20.09;93.36;97678.72;5167328;28;20818;-62
2021/09/15 02:45:33;;;;;;;11.93;11.02;;;19.20;99.90;;;20.09;92.99;97671.84;5164976;28;20210;-63
2021/09/15 02:48:07;;;;;;;12.77;11.68;;;19.20;99.90;;;20.01;93.06;97669.09;5164323;28;20205;-62
2021/09/15 02:50:40;;;;;;;12.52;11.45;;;19.10;99.90;;;19.93;93.46;97675.00;5165181;28;20195;-62
2021/09/15 02:53:14;;;;;;;12.68;11.57;;;19.00;99.90;;;19.95;93.63;97668.13;5162920;28;20215;-63
2021/09/15 02:55:47;;;;;;;11.57;10.68;;;19.10;99.90;;;19.99;93.82;97660.41;5174547;28;20206;-62
2021/09/15 02:58:21;;;;;;;11.43;10.52;;;19.10;99.90;;;19.99;93.69;97654.34;5164790;28;20219;-62
2021/09/15 03:00:54;;;;;;;11.93;11.02;;;19.10;99.90;;;19.98;93.28;97663.00;5163164;28;20687;-63
2021/09/15 03:03:27;;;;;;;12.50;11.43;;;19.00;99.90;;;20.00;93.25;97666.47;5164252;28;20219;-63
2021/09/15 03:06:00;;;;;;;11.80;10.80;;;19.00;99.90;;;19.95;93.47;97663.81;5164972;28;20199;-63
2021/09/15 03:08:34;;;;;;;11.65;10.85;;;19.00;99.90;;;19.96;93.34;97660.38;5169027;28;20767;-63
2021/09/15 03:11:07;;;;;;;11.45;10.55;;;19.00;99.90;;;19.96;93.59;97664.69;5167672;28;20651;-62
2021/09/15 03:13:40;;;;;;;12.65;11.65;;;19.00;99.90;;;19.91;93.28;97662.00;5168444;28;20630;-63
2021/09/15 03:16:14;;;;;;;11.43;10.40;;;19.00;99.90;;;19.88;93.91;97661.09;5168353;28;20208;-62
2021/09/15 03:18:47;;;;;;;12.30;11.30;;;19.00;99.90;;;19.89;94.39;97655.06;5167721;28;20219;-62
2021/09/15 03:21:20;;;;;;;11.98;11.07;;;19.00;99.90;;;19.84;93.75;97656.69;5168353;28;20203;-61
2021/09/15 03:23:54;;;;;;;11.50;10.70;;;18.90;99.90;;;19.86;93.57;97662.75;5167553;28;20207;-63
2021/09/15 03:26:27;;;;;;;12.07;11.07;;;18.90;99.90;;;19.85;93.76;97658.44;5167421;28;20277;-62
2021/09/15 03:29:01;;;;;;;12.35;11.45;;;19.00;99.90;;;19.84;94.33;97644.59;5168023;28;20676;-62
2021/09/15 03:31:34;;;;;;;12.40;11.40;;;19.00;99.90;;;19.89;94.05;97655.06;5166910;28;20354;-63
2021/09/15 03:34:07;;;;;;;12.27;11.30;;;19.00;99.90;;;19.91;93.44;97653.34;5168033;28;20462;-63
2021/09/15 03:36:40;;;;;;;12.10;10.95;;;19.00;99.90;;;19.94;93.31;97656.00;5167545;28;20294;-63
2021/09/15 03:39:14;;;;;;;12.05;11.05;;;19.00;99.90;;;19.90;93.44;97646.44;5147723;28;20227;-63
2021/09/15 03:41:49;;;;;;;12.43;11.52;;;19.00;99.90;;;19.84;93.37;97648.91;5152082;28;20223;-62
2021/09/15 03:44:22;;;;;;;14.20;13.00;;;18.90;99.90;;;19.76;93.79;97647.06;5170096;28;20202;-62
2021/09/15 03:46:55;;;;;;;11.68;10.68;;;18.90;99.90;;;19.74;93.50;97641.00;5166813;28;20208;-62
2021/09/15 03:49:28;;;;;;;12.32;11.25;;;18.90;99.90;;;19.75;93.75;97640.13;5168056;28;20199;-62
2021/09/15 03:52:01;;;;;;;12.98;11.98;;;18.90;99.90;;;19.77;94.41;97635.84;5167502;28;20695;-63
2021/09/15 03:54:36;;;;;;;13.57;12.38;;;18.90;99.90;;;19.79;94.09;97631.53;5167137;28;20662;-63
2021/09/15 03:57:09;;;;;;;12.45;11.55;;;18.90;99.90;;;19.87;93.91;97644.66;5166423;28;20199;-63
2021/09/15 03:59:42;;;;;;;13.52;12.35;;;19.00;99.90;;;19.89;94.05;97636.91;5167380;28;20226;-63
2021/09/15 04:02:15;;;;;;;13.07;12.02;;;19.00;99.90;;;19.90;93.79;97642.09;5163399;28;20219;-62
2021/09/15 04:04:50;;;;;;;13.23;12.13;;;19.00;99.90;;;19.87;93.66;97641.19;5153493;28;20589;-63
2021/09/15 04:07:23;;;;;;;13.38;12.27;;;19.00;99.90;;;19.88;93.85;97638.59;5167519;28;20213;-62
2021/09/15 04:09:58;;;;;;;13.85;12.75;;;19.00;99.90;;;19.87;94.74;97647.25;5166845;28;20198;-63
2021/09/15 04:12:31;;;;;;;13.82;12.63;;;19.00;99.90;;;19.84;95.06;97643.72;5165752;28;20233;-63
2021/09/15 04:15:06;;;;;;;13.68;12.40;;;19.00;99.90;;;19.85;94.74;97643.75;5162339;28;20206;-62
2021/09/15 04:17:39;;;;;;;12.60;11.60;;;19.00;99.90;;;19.89;94.58;97642.97;5157909;28;20206;-62
2021/09/15 04:20:13;;;;;;;12.80;11.60;;;19.00;99.90;;;19.92;94.31;97652.53;5166534;28;20314;-62
2021/09/15 04:22:47;;;;;;;13.32;12.23;;;19.00;99.90;;;19.96;94.02;97651.72;5166069;28;20236;-62
2021/09/15 04:31:17;;;;;;;11.27;10.43;;;19.00;99.90;;;19.96;93.04;97659.50;5166219;28;20225;-62
2021/09/15 04:33:50;;;;;;;12.02;10.98;;;19.00;99.90;;;19.91;93.63;97661.13;5167729;28;20191;-63
2021/09/15 04:36:23;;;;;;;11.38;10.50;;;18.90;99.90;;;19.82;94.39;97660.97;5167996;28;20209;-61
2021/09/15 04:38:56;;;;;;;12.98;11.98;;;18.90;99.90;;;19.76;95.06;97657.41;5172596;28;20219;-62
2021/09/15 04:41:31;;;;;;;11.38;10.48;;;18.90;99.90;;;19.70;95.23;97653.84;5160603;28;21011;-61
2021/09/15 04:44:05;;;;;;;12.40;11.45;;;18.80;99.90;;;19.58;95.74;97657.94;5169583;28;20213;-61
2021/09/15 04:46:38;;;;;;;12.88;11.88;;;18.80;99.90;;;19.50;97.28;97663.84;5165510;28;20287;-62
2021/09/15 04:49:11;;;;;;;13.23;12.13;;;18.70;99.90;;;19.44;97.57;97669.78;5175104;28;20196;-62
2021/09/15 04:51:44;;;;;;;12.75;11.75;;;18.70;99.90;;;19.40;98.35;97669.69;5166702;28;20222;-62
2021/09/15 04:54:17;;;;;;;12.93;11.93;;;18.60;99.90;;;19.41;97.30;97674.03;5166678;28;20203;-62
2021/09/15 04:56:51;;;;;;;13.80;12.52;;;18.60;99.90;;;19.35;97.41;97670.47;5166025;28;20192;-62
2021/09/15 04:59:24;;;;;;;13.07;11.88;;;18.60;99.90;;;19.31;97.48;97660.00;5164002;28;20223;-62
2021/09/15 05:01:58;;;;;;;13.52;12.43;;;18.50;99.90;;;19.28;97.68;97660.81;5154854;28;20236;-62
2021/09/15 05:04:31;;;;;;;13.68;12.48;;;18.60;99.90;;;19.30;97.80;97661.72;5164080;28;20250;-62
2021/09/15 05:07:04;;;;;;;15.20;14.00;;;18.60;99.90;;;19.33;98.28;97660.91;5155782;28;20200;-62
2021/09/15 05:09:37;;;;;;;14.77;13.45;;;18.60;99.90;;;19.40;98.78;97667.09;5159616;28;20192;-61
2021/09/15 05:12:12;;;;;;;15.32;14.07;;;18.60;99.90;;;19.42;99.66;97675.78;5156464;28;20223;-62
2021/09/15 05:14:45;;;;;;;14.75;13.45;;;18.70;99.90;;;19.49;99.92;97688.03;5165525;28;20322;-62
2021/09/15 05:17:19;;;;;;;13.82;12.73;;;18.80;99.90;;;19.52;99.77;97685.50;5156656;28;20209;-62
2021/09/15 05:19:52;;;;;;;13.35;12.25;;;18.80;99.90;;;19.56;99.79;97684.69;5160059;28;20322;-62
2021/09/15 05:22:25;;;;;;;14.55;13.32;;;18.80;99.90;;;19.60;99.65;97696.84;5161636;28;20231;-62
2021/09/15 05:24:58;;;;;;;13.43;12.50;;;18.80;99.90;;;19.61;99.59;97697.75;5161022;28;20242;-62
2021/09/15 05:27:32;;;;;;;13.45;12.25;;;18.80;99.90;;;19.64;99.05;97701.28;5164712;28;20574;-61
2021/09/15 05:30:07;;;;;;;13.60;12.60;;;18.80;99.90;;;19.70;98.86;97696.22;5164681;28;20630;-62
2021/09/15 05:32:41;;;;;;;13.45;12.30;;;18.80;99.90;;;19.71;98.86;97705.75;5159501;28;20226;-62
2021/09/15 05:35:15;;;;;;;13.30;12.30;;;18.90;99.90;;;19.70;98.65;97704.00;5166540;28;20575;-62
2021/09/15 05:37:48;;;;;;;13.52;12.43;;;18.90;99.90;;;19.71;98.63;97710.94;5158540;28;20215;-63
2021/09/15 05:40:21;;;;;;;13.77;12.63;;;18.90;99.90;;;19.72;98.40;97707.50;5163328;28;20223;-62
2021/09/15 05:42:55;;;;;;;13.35;12.27;;;18.90;99.90;;;19.76;98.30;97713.63;5166623;28;20229;-61
2021/09/15 05:45:28;;;;;;;13.50;12.38;;;18.90;99.90;;;19.82;97.78;97718.03;5163224;28;20195;-61
2021/09/15 05:48:01;;;;;;;13.52;12.27;;;18.90;99.90;;;19.84;97.41;97722.41;5167360;28;20195;-62
2021/09/15 05:50:34;;;;;;;12.63;11.63;;;18.90;99.90;;;19.80;97.40;97712.81;5168750;28;20206;-62
2021/09/15 05:53:08;;;;;;;12.85;11.85;;;18.90;99.90;;;19.78;97.77;97717.13;5166679;28;20753;-61
2021/09/15 05:55:41;;;;;;;13.52;12.50;;;19.00;99.90;;;19.93;96.75;97724.31;5182652;28;20702;-61
2021/09/15 05:58:17;;;;;;;12.48;11.48;;;18.90;99.90;;;19.87;96.59;97726.78;5174186;28;20209;-62
2021/09/15 06:00:50;;;;;;;11.93;11.02;;;18.90;99.90;;;19.83;96.72;97718.09;5178632;28;20588;-61
2021/09/15 06:03:23;;;;;;;13.50;12.30;;;18.90;99.90;;;19.78;96.85;97728.38;5167752;28;20230;-62
2021/09/15 06:05:56;;;;;;;12.63;11.52;;;18.90;99.90;;;19.77;97.24;97731.81;5166973;28;20578;-61
2021/09/15 06:08:29;;;;;;;12.38;11.30;;;18.90;99.90;;;19.82;97.56;97734.47;5163796;28;20567;-61
2021/09/15 06:11:02;;;;;;;12.40;11.43;;;19.00;99.90;;;19.80;97.65;97731.88;5167653;28;20282;-62
2021/09/15 06:13:37;;;;;;;13.75;12.55;;;19.00;99.90;;;19.82;98.19;97728.41;5160949;28;20315;-62
2021/09/15 06:16:10;;;;;;;12.95;11.93;;;19.00;99.90;;;19.78;98.25;97725.78;5188392;28;20197;-62
2021/09/15 06:18:43;;;;;;;13.70;12.60;;;19.00;99.90;;;19.71;98.43;97715.25;5159708;28;20213;-62
2021/09/15 06:21:17;;;;;;;15.38;13.98;;;18.90;99.90;;;19.64;98.96;97715.97;5166508;28;20215;-62
2021/09/15 06:23:55;;;;;;;12.95;11.95;;;18.90;99.90;;;19.65;99.16;97705.63;5164593;28;20210;-61
2021/09/15 06:26:29;;;;;;;13.80;12.80;;;18.90;99.90;;;19.64;98.78;97705.59;5165437;28;20294;-62
2021/09/15 06:29:03;;;;;;;14.60;13.40;;;18.90;99.90;;;19.63;99.28;97702.13;5170678;28;20238;-62
2021/09/15 06:31:36;;;;;;;13.48;12.48;;;18.90;99.90;;;19.66;99.75;97712.59;5169042;28;20297;-62
2021/09/15 06:34:09;;;;;;;14.05;12.95;;;19.00;99.90;;;19.66;100.00;97711.69;5160825;28;20277;-61
2021/09/15 06:36:43;;;;;;;14.45;13.38;;;19.00;99.90;;;19.71;100.00;97721.31;5161595;28;20204;-62
2021/09/15 06:39:17;;;;;;;15.00;13.60;;;19.00;99.90;;;19.66;100.00;97722.97;5160342;28;20298;-62
2021/09/15 06:41:50;;;;;;;14.35;13.15;;;19.00;99.90;;;19.68;100.00;97729.03;5170383;28;20828;-62
2021/09/15 06:44:24;;;;;;;15.68;14.18;;;19.00;99.90;;;19.62;100.00;97726.28;5180230;28;20199;-62
2021/09/15 06:46:57;;;;;;;15.68;14.38;;;19.00;99.90;;;19.58;100.00;97724.50;5167564;28;20197;-62
2021/09/15 06:49:30;;;;;;;15.60;14.30;;;19.00;99.90;;;19.59;100.00;97721.91;5168710;28;20294;-61
2021/09/15 06:52:04;;;;;;;15.60;14.40;;;19.00;99.90;;;19.61;100.00;97723.69;5164238;28;20717;-61
2021/09/15 06:54:39;;;;;;;16.40;15.00;;;19.00;99.90;;;19.60;100.00;97722.78;5166735;28;20199;-60
2021/09/15 06:57:12;;;;;;;16.20;14.90;;;19.00;99.90;;;19.64;100.00;97723.75;5167984;28;20206;-60
2021/09/15 06:59:47;;;;;;;17.00;15.52;;;18.90;99.90;;;19.64;100.00;97732.38;5162634;28;20223;-60
2021/09/15 07:02:20;;;;;;;15.80;14.32;;;19.00;99.90;;;19.63;100.00;97728.06;5160475;28;20231;-60
2021/09/15 07:04:53;;;;;;;14.60;13.30;;;19.00;99.90;;;19.62;100.00;97730.59;5157523;28;20210;-60
2021/09/15 07:07:26;;;;;;;15.35;14.13;;;18.90;99.90;;;19.61;100.00;97724.56;5163815;28;20289;-60
2021/09/15 07:09:59;;;;;;;15.02;13.73;;;18.90;99.90;;;19.61;100.00;97723.69;5164349;28;20202;-60
2021/09/15 07:12:32;;;;;;;15.73;14.45;;;18.90;99.90;;;19.56;100.00;97716.66;5169746;28;20318;-60
2021/09/15 07:15:10;;;;;;;14.88;13.68;;;18.90;99.90;;;19.50;100.00;97718.28;5164266;28;20239;-60
2021/09/15 07:17:47;;;;;;;15.02;13.88;;;18.90;99.90;;;19.51;100.00;97707.91;5161011;28;20214;-61
2021/09/15 07:20:20;;;;;;;14.80;13.60;;;18.90;99.90;;;19.45;100.00;97704.34;5169191;28;20225;-61
2021/09/15 07:22:53;;;;;;;16.02;14.63;;;18.80;99.90;;;19.50;100.00;97700.13;5164530;28;20504;-58
2021/09/15 07:25:26;;;;;;;14.35;13.15;;;18.90;99.90;;;19.50;100.00;97703.59;5165838;28;20199;-61
2021/09/15 07:27:59;;;;;;;15.13;13.93;;;18.90;99.90;;;19.51;100.00;97707.06;5167326;28;20229;-59
2021/09/15 07:30:34;;;;;;;14.88;13.68;;;18.90;99.90;;;19.51;100.00;97707.91;5164471;28;20606;-61
2021/09/15 07:33:07;;;;;;;15.73;14.43;;;18.90;99.90;;;19.54;100.00;97704.50;5166945;28;20218;-60
2021/09/15 07:35:40;;;;;;;15.63;14.38;;;18.90;99.90;;;19.59;100.00;97705.47;5162337;28;20290;-57
2021/09/15 07:38:13;;;;;;;16.65;15.30;;;19.00;99.90;;;19.67;100.00;97703.94;5160370;28;20198;-61
2021/09/15 07:40:47;;;;;;;17.10;15.52;;;19.00;99.90;;;19.73;100.00;97691.09;5163092;28;20227;-61
2021/09/15 07:43:20;;;;;;;17.13;15.55;;;19.10;99.90;;;19.78;100.00;97692.06;5162650;28;20223;-57
2021/09/15 07:45:54;;;;;;;16.02;14.60;;;19.20;99.90;;;19.84;100.00;97696.47;5155552;28;20211;-61
2021/09/15 07:48:27;;;;;;;17.13;15.52;;;19.20;99.90;;;19.87;100.00;97717.28;5161717;28;20205;-58
2021/09/15 07:51:01;;;;;;;17.48;15.98;;;19.20;99.90;;;19.89;100.00;97712.13;5165571;28;20308;-60
2021/09/15 07:53:34;;;;;;;17.35;15.95;;;19.20;99.90;;;19.92;100.00;97722.56;5164897;28;20225;-59
2021/09/15 07:56:07;;;;;;;16.08;14.50;;;19.30;99.90;;;19.97;100.00;97724.41;5160797;28;20644;-60
2021/09/15 07:58:40;;;;;;;15.52;14.18;;;19.30;99.90;;;19.97;100.00;97723.50;5162084;28;20207;-60
2021/09/15 08:01:15;;;;;;;16.65;15.25;;;19.30;99.90;;;20.01;100.00;97730.50;5162853;28;20219;-60
2021/09/15 08:03:48;;;;;;;15.98;14.57;;;19.30;99.90;;;20.03;100.00;97749.59;5160568;28;20572;-59
2021/09/15 08:06:22;;;;;;;16.55;15.25;;;19.30;99.90;;;20.09;100.00;97749.69;5158514;28;20298;-56
2021/09/15 08:08:59;;;;;;;14.50;13.30;;;19.40;99.90;;;20.16;100.00;97748.06;5155225;28;20203;-57
2021/09/15 08:11:33;;;;;;;15.88;14.27;;;19.50;99.90;;;20.12;100.00;97725.50;5164152;28;20230;-60
2021/09/15 08:14:06;;;;;;;15.15;13.88;;;19.40;99.90;;;20.13;100.00;97717.75;5168812;28;20293;-59
2021/09/15 08:16:41;;;;;;;15.55;14.25;;;19.40;99.90;;;20.22;100.00;97710.09;5165075;28;20199;-60
2021/09/15 08:19:14;;;;;;;15.70;14.30;;;19.50;99.90;;;20.34;100.00;97719.81;5155948;28;20200;-60
2021/09/15 08:21:47;;;;;;;15.27;13.98;;;19.60;99.90;;;20.44;100.00;97736.41;5166185;28;20231;-59
2021/09/15 08:24:20;;;;;;;14.02;12.82;;;19.80;99.90;;;20.54;100.00;97761.72;5163732;28;20199;-60
2021/09/15 08:26:54;;;;;;;13.70;12.70;;;19.90;99.90;;;20.63;100.00;97779.16;5159645;28;20201;-59
2021/09/15 08:29:27;;;;;;;13.88;12.75;;;19.90;99.90;;;20.66;100.00;97774.00;5164436;28;20222;-59
2021/09/15 08:32:02;;;;;;;13.57;12.38;;;19.90;99.90;;;20.67;100.00;97776.66;5161959;28;20599;-60
2021/09/15 08:34:35;;;;;;;13.88;12.63;;;19.90;99.90;;;20.77;100.00;97776.78;5164481;28;20282;-60
2021/09/15 08:37:08;;;;;;;13.35;12.15;;;20.00;99.90;;;20.81;100.00;97771.66;5164555;28;20640;-60
2021/09/15 08:39:41;;;;;;;13.13;12.02;;;20.00;99.90;;;20.90;100.00;97752.75;5164633;28;20210;-60
2021/09/15 08:42:15;;;;;;;13.48;12.27;;;20.10;99.90;;;20.88;100.00;97744.03;5165846;28;20231;-59
2021/09/15 08:44:48;;;;;;;12.57;11.48;;;20.10;99.90;;;20.86;99.76;97735.34;5157746;28;20199;-60
2021/09/15 08:47:26;;;;;;;14.23;12.80;;;20.00;99.90;;;20.82;98.43;97734.44;5163018;28;20648;-60
2021/09/15 08:50:00;;;;;;;12.52;11.43;;;20.00;99.90;;;20.80;99.04;97732.66;5162644;28;20540;-59
2021/09/15 08:52:33;;;;;;;11.82;10.82;;;20.00;99.90;;;20.79;100.00;97737.00;5166400;28;20306;-60
2021/09/15 08:55:08;;;;;;;10.88;10.00;;;20.00;99.90;;;20.81;100.00;97739.63;5158317;28;20204;-61
2021/09/15 08:57:41;;;;;;;11.60;10.70;;;20.00;99.90;;;20.83;100.00;97756.09;5164602;28;20202;-59
2021/09/15 09:00:15;;;;;;;11.27;10.38;;;20.10;99.90;;;20.82;100.00;97759.53;5171177;28;20200;-60
2021/09/15 09:02:52;;;;;;;10.82;9.95;;;20.00;99.90;;;20.84;100.00;97778.63;5156785;28;20228;-60
2021/09/15 09:05:26;;;;;;;10.48;9.52;;;20.00;99.90;;;20.85;99.50;97769.97;5163871;28;20199;-60
2021/09/15 09:08:00;;;;;;;10.95;10.05;;;20.00;99.90;;;20.88;98.61;97772.63;5159215;28;20208;-61
2021/09/15 09:10:34;;;;;;;10.68;9.68;;;20.00;99.90;;;20.88;97.97;97780.41;5161177;28;20275;-60
2021/09/15 09:13:18;;;;;;;10.57;9.68;;;20.00;99.90;;;20.85;98.61;97783.84;5161858;28;20219;-61
2021/09/15 09:15:52;;;;;;;11.15;10.20;;;20.00;99.90;;;20.84;99.07;97792.50;5160116;28;20579;-61
2021/09/15 09:18:27;;;;;;;11.90;10.80;;;20.00;99.90;;;20.87;99.88;97794.28;5161961;28;20297;-60
2021/09/15 09:21:00;;;;;;;11.52;10.52;;;20.00;99.90;;;20.88;99.59;97790.81;5168521;28;20589;-60
2021/09/15 09:23:43;;;;;;;11.60;10.60;;;20.00;99.90;;;20.87;100.00;97794.28;5167640;28;20226;-58
2021/09/15 09:26:16;;;;;;;11.50;10.60;;;19.90;99.90;;;20.89;100.00;97797.78;5163031;28;20206;-61
2021/09/15 09:28:50;;;;;;;12.30;11.23;;;19.90;99.90;;;20.88;100.00;97801.22;5163006;28;20202;-60
2021/09/15 09:31:23;;;;;;;12.65;11.50;;;20.00;99.90;;;20.87;100.00;97805.53;5163553;28;20560;-59
2021/09/15 09:34:04;;;;;;;12.82;11.77;;;19.90;99.90;;;20.87;99.90;97807.25;5164633;28;20199;-60
2021/09/15 09:36:37;;;;;;;12.68;11.48;;;19.90;99.90;;;20.82;99.08;97807.19;5158980;28;20200;-60
2021/09/15 09:39:12;;;;;;;11.52;10.45;;;19.90;99.90;;;20.81;99.78;97809.78;5157044;28;20199;-60
2021/09/15 09:41:45;;;;;;;12.68;11.57;;;19.90;99.90;;;20.74;99.90;97813.09;5161993;28;20227;-60
2021/09/15 09:44:27;;;;;;;12.15;11.05;;;19.90;99.90;;;20.68;100.00;97809.56;5164668;28;20298;-58
2021/09/15 09:47:19;;;;;;;12.50;11.45;;;19.90;99.90;;;20.65;100.00;97819.91;5162706;28;20205;-59
2021/09/15 09:50:01;;;;;;;12.55;11.48;;;19.90;99.90;;;20.56;100.00;97814.56;5157637;28;20198;-59
2021/09/15 09:52:53;;;;;;;11.85;10.85;;;19.80;99.90;;;20.45;100.00;97811.72;5153588;28;20216;-60
2021/09/15 09:55:34;;;;;;;11.48;10.57;;;19.80;99.90;;;20.41;100.00;97812.53;5161696;28;20668;-61
2021/09/15 09:58:07;;;;;;;12.00;11.00;;;19.80;99.90;;;20.43;100.00;97817.75;5163508;28;20203;-57
2021/09/15 10:00:42;;;;;;;12.65;11.55;;;19.70;99.90;;;20.44;100.00;97817.78;5159863;28;20717;-60
2021/09/15 10:03:16;;;;;;;12.07;10.98;;;19.70;99.90;;;20.44;100.00;97816.91;5160297;28;20227;-61
2021/09/15 10:05:51;;;;;;;12.02;11.02;;;19.80;99.90;;;20.39;100.00;97821.16;5160524;28;20206;-63
2021/09/15 10:08:25;;;;;;;12.45;11.30;;;19.70;99.90;;;20.36;100.00;97831.47;5173559;28;20199;-61
2021/09/15 10:10:58;;;;;;;12.00;10.90;;;19.70;99.90;;;20.36;100.00;97823.69;5154185;28;20518;-62
2021/09/15 10:13:31;;;;;;;11.10;10.00;;;19.70;99.90;;;20.30;100.00;97823.59;5158873;28;20225;-64
2021/09/15 10:16:08;;;;;;;10.60;9.70;;;19.60;99.90;;;20.25;100.00;97819.16;5163683;28;20199;-62
2021/09/15 10:18:41;;;;;;;9.50;8.50;;;19.60;99.90;;;20.22;100.00;97816.53;5161798;28;20199;-63
2021/09/15 10:21:16;;;;;;;9.77;8.88;;;19.60;99.90;;;20.19;100.00;97813.00;5161890;28;20601;-63
2021/09/15 10:23:50;;;;;;;9.57;8.70;;;19.50;99.90;;;20.19;100.00;97798.28;5165611;28;20209;-63
2021/09/15 10:26:35;;;;;;;8.82;8.02;;;19.50;99.90;;;20.00;100.00;97796.19;5153862;28;20195;-63
2021/09/15 10:29:27;;;;;;;9.20;8.40;;;19.40;99.90;;;19.90;100.00;97799.47;5160472;28;20204;-63
2021/09/15 10:32:04;;;;;;;9.20;8.50;;;19.30;99.90;;;19.81;100.00;97795.00;5165686;28;20218;-62
2021/09/15 10:34:52;;;;;;;8.48;7.78;;;19.20;99.90;;;19.77;100.00;97799.25;5160007;28;20289;-62
2021/09/15 10:37:54;;;;;;;8.80;8.00;;;19.20;99.90;;;19.75;100.00;97797.47;5161888;28;20563;-63
2021/09/15 10:40:43;;;;;;;8.88;8.05;;;19.10;99.90;;;19.75;100.00;97789.69;5164629;28;20198;-60